Terminal Aerodrome Forecast
Issued by NWS Bismarck, ND

Home | Current Version | Previous Version | Graphics & Text | Print | Product List | Glossary Off
Versions: 1 2 3 4 5 6 7 8 9 10 11 12 13 14 15

000
FTUS43 KBIS 310200 AAA
TAFISN
TAF AMD
KISN 310245Z 3103/3124 VRB05KT P6SM SCT015 BKN050
     FM311300 32008KT P6SM BKN070=

USA.gov is the U.S. government's official web portal to all federal, state and local government web resources and services.